San Diego, California
Traffic Map
Current Weather Conditions
San Diego, California
Overcast Light Rain
Overcast
56°
Feels Like: 56°
Wind Chill: 56° Ceiling: 8000
Heat Index: 56° Visibility: 10mi
Dew Point: 49° Wind: 14mph
Humidity: 77% Direction: 80° (E)
Pressure: 29.94in Gusts: 21mph
Raw Report DataKSAN 011851Z 08012G18KT 10SM -RA FEW015 OVC080 13/09 A2994 RMK AO2 SLP139 P0003 T01330094
Traffic Incident Summary
Active as of:
Severity:
Category:
InformationThere was an issue retrieving the traffic information for this location. Please try a different location or try again shortly.
Advertisements
Track Severe Weather on mobile